sensor_id;sensor_type;location;lat;lon;timestamp;P1;P2;P0
65360;PMS5003;51958;55.018;73.536;2022-07-24T00:01:43;8.00;6.00;3.00
65360;PMS5003;51958;55.018;73.536;2022-07-24T00:04:09;7.67;7.00;3.00
65360;PMS5003;51958;55.018;73.536;2022-07-24T00:06:38;6.25;6.00;2.00
65360;PMS5003;51958;55.018;73.536;2022-07-24T00:09:14;7.75;6.25;2.50
65360;PMS5003;51958;55.018;73.536;2022-07-24T00:11:40;8.00;6.50;3.00
65360;PMS5003;51958;55.018;73.536;2022-07-24T00:14:07;7.00;6.00;4.00
65360;PMS5003;51958;55.018;73.536;2022-07-24T00:16:36;7.00;6.25;4.00
65360;PMS5003;51958;55.018;73.536;2022-07-24T00:19:06;9.00;9.00;4.00
65360;PMS5003;51958;55.018;73.536;2022-07-24T00:21:32;7.00;6.00;2.00
65360;PMS5003;51958;55.018;73.536;2022-07-24T00:24:08;6.00;6.00;3.25
65360;PMS5003;51958;55.018;73.536;2022-07-24T00:26:35;6.25;6.25;3.00
65360;PMS5003;51958;55.018;73.536;2022-07-24T00:29:01;7.00;6.00;3.00
65360;PMS5003;51958;55.018;73.536;2022-07-24T00:31:30;7.00;6.50;3.00
65360;PMS5003;51958;55.018;73.536;2022-07-24T00:33:56;7.25;7.25;3.00
65360;PMS5003;51958;55.018;73.536;2022-07-24T00:36:22;5.33;5.33;2.67
65360;PMS5003;51958;55.018;73.536;2022-07-24T00:38:48;4.00;4.00;2.00
65360;PMS5003;51958;55.018;73.536;2022-07-24T00:41:14;4.00;4.00;3.00
65360;PMS5003;51958;55.018;73.536;2022-07-24T00:46:24;5.75;5.00;3.00
65360;PMS5003;51958;55.018;73.536;2022-07-24T00:48:51;5.00;5.00;3.00
65360;PMS5003;51958;55.018;73.536;2022-07-24T00:51:22;4.00;4.00;2.00
65360;PMS5003;51958;55.018;73.536;2022-07-24T00:53:48;5.00;5.00;2.00
65360;PMS5003;51958;55.018;73.536;2022-07-24T00:56:14;7.00;7.00;3.00
65360;PMS5003;51958;55.018;73.536;2022-07-24T00:58:39;6.33;6.33;3.00
65360;PMS5003;51958;55.018;73.536;2022-07-24T01:01:06;5.00;5.00;3.00
65360;PMS5003;51958;55.018;73.536;2022-07-24T01:03:43;5.00;5.00;1.00
65360;PMS5003;51958;55.018;73.536;2022-07-24T01:06:08;6.33;5.00;1.00
65360;PMS5003;51958;55.018;73.536;2022-07-24T01:08:44;6.00;6.00;2.50
65360;PMS5003;51958;55.018;73.536;2022-07-24T01:11:21;5.00;5.00;4.00
65360;PMS5003;51958;55.018;73.536;2022-07-24T01:13:48;6.00;5.00;2.75
65360;PMS5003;51958;55.018;73.536;2022-07-24T01:16:20;7.00;7.00;2.00
65360;PMS5003;51958;55.018;73.536;2022-07-24T01:18:46;5.00;5.00;2.00
65360;PMS5003;51958;55.018;73.536;2022-07-24T01:21:12;5.33;5.00;3.00
65360;PMS5003;51958;55.018;73.536;2022-07-24T01:23:37;5.33;5.00;2.00
65360;PMS5003;51958;55.018;73.536;2022-07-24T01:26:06;5.00;4.00;1.00
65360;PMS5003;51958;55.018;73.536;2022-07-24T01:28:37;4.50;4.50;1.50
65360;PMS5003;51958;55.018;73.536;2022-07-24T01:31:02;5.00;5.00;1.00
65360;PMS5003;51958;55.018;73.536;2022-07-24T01:33:28;3.33;3.00;2.00
65360;PMS5003;51958;55.018;73.536;2022-07-24T01:35:55;5.75;2.75;2.00
65360;PMS5003;51958;55.018;73.536;2022-07-24T01:38:31;4.00;4.00;1.00
65360;PMS5003;51958;55.018;73.536;2022-07-24T01:40:58;4.00;3.00;0.00
65360;PMS5003;51958;55.018;73.536;2022-07-24T01:43:24;1.00;1.00;0.00
65360;PMS5003;51958;55.018;73.536;2022-07-24T01:45:50;2.00;2.00;0.00
65360;PMS5003;51958;55.018;73.536;2022-07-24T01:48:15;2.67;2.67;0.00
65360;PMS5003;51958;55.018;73.536;2022-07-24T01:50:42;2.50;2.50;0.00
65360;PMS5003;51958;55.018;73.536;2022-07-24T01:53:07;1.33;0.33;0.00
65360;PMS5003;51958;55.018;73.536;2022-07-24T01:55:33;2.33;1.33;0.00
65360;PMS5003;51958;55.018;73.536;2022-07-24T01:57:59;2.00;2.00;0.00
65360;PMS5003;51958;55.018;73.536;2022-07-24T02:00:29;1.25;1.25;0.00
65360;PMS5003;51958;55.018;73.536;2022-07-24T02:02:55;2.00;2.00;0.00
65360;PMS5003;51958;55.018;73.536;2022-07-24T02:05:21;2.00;1.67;0.00
65360;PMS5003;51958;55.018;73.536;2022-07-24T02:07:53;1.00;0.33;0.00
65360;PMS5003;51958;55.018;73.536;2022-07-24T02:10:19;0.00;0.00;0.00
65360;PMS5003;51958;55.018;73.536;2022-07-24T02:12:47;1.00;1.00;0.00
65360;PMS5003;51958;55.018;73.536;2022-07-24T02:15:13;1.00;1.00;0.00
65360;PMS5003;51958;55.018;73.536;2022-07-24T02:17:46;1.00;1.00;0.00
65360;PMS5003;51958;55.018;73.536;2022-07-24T02:20:13;1.00;1.00;0.00
65360;PMS5003;51958;55.018;73.536;2022-07-24T02:22:40;0.00;0.00;0.00
65360;PMS5003;51958;55.018;73.536;2022-07-24T02:25:06;0.00;0.00;0.00
65360;PMS5003;51958;55.018;73.536;2022-07-24T02:27:33;0.00;0.00;0.00
65360;PMS5003;51958;55.018;73.536;2022-07-24T02:30:05;0.00;0.00;0.00
65360;PMS5003;51958;55.018;73.536;2022-07-24T02:32:36;0.00;0.00;0.00
65360;PMS5003;51958;55.018;73.536;2022-07-24T02:35:02;0.00;0.00;0.00
65360;PMS5003;51958;55.018;73.536;2022-07-24T02:37:36;0.00;0.00;0.00
65360;PMS5003;51958;55.018;73.536;2022-07-24T02:40:03;0.00;0.00;0.00
65360;PMS5003;51958;55.018;73.536;2022-07-24T02:42:29;0.00;0.00;0.00
65360;PMS5003;51958;55.018;73.536;2022-07-24T02:44:54;0.00;0.00;0.00
65360;PMS5003;51958;55.018;73.536;2022-07-24T02:47:20;0.00;0.00;0.00
65360;PMS5003;51958;55.018;73.536;2022-07-24T02:49:57;0.00;0.00;0.00
65360;PMS5003;51958;55.018;73.536;2022-07-24T02:52:22;0.00;0.00;0.00
65360;PMS5003;51958;55.018;73.536;2022-07-24T02:54:48;0.00;0.00;0.00
65360;PMS5003;51958;55.018;73.536;2022-07-24T02:57:14;0.00;0.00;0.00
65360;PMS5003;51958;55.018;73.536;2022-07-24T02:59:40;0.00;0.00;0.00
65360;PMS5003;51958;55.018;73.536;2022-07-24T03:02:05;0.00;0.00;0.00
65360;PMS5003;51958;55.018;73.536;2022-07-24T03:04:31;0.00;0.00;0.00
65360;PMS5003;51958;55.018;73.536;2022-07-24T03:06:57;0.00;0.00;0.00
65360;PMS5003;51958;55.018;73.536;2022-07-24T03:09:27;0.00;0.00;0.00
65360;PMS5003;51958;55.018;73.536;2022-07-24T03:11:53;0.00;0.00;0.00
65360;PMS5003;51958;55.018;73.536;2022-07-24T03:14:19;0.00;0.00;0.00
65360;PMS5003;51958;55.018;73.536;2022-07-24T03:16:54;0.00;0.00;0.00
65360;PMS5003;51958;55.018;73.536;2022-07-24T03:19:20;0.00;0.00;0.00
65360;PMS5003;51958;55.018;73.536;2022-07-24T03:21:46;0.00;0.00;0.00
65360;PMS5003;51958;55.018;73.536;2022-07-24T03:24:11;0.00;0.00;0.00
65360;PMS5003;51958;55.018;73.536;2022-07-24T03:26:42;0.00;0.00;0.00
65360;PMS5003;51958;55.018;73.536;2022-07-24T03:29:14;0.00;0.00;0.00
65360;PMS5003;51958;55.018;73.536;2022-07-24T03:31:39;0.00;0.00;0.00
65360;PMS5003;51958;55.018;73.536;2022-07-24T03:34:13;0.00;0.00;0.00
65360;PMS5003;51958;55.018;73.536;2022-07-24T03:36:39;0.00;0.00;0.00
65360;PMS5003;51958;55.018;73.536;2022-07-24T03:39:11;0.00;0.00;0.00
65360;PMS5003;51958;55.018;73.536;2022-07-24T03:41:37;0.00;0.00;0.00
65360;PMS5003;51958;55.018;73.536;2022-07-24T03:44:03;0.00;0.00;0.00
65360;PMS5003;51958;55.018;73.536;2022-07-24T03:46:30;0.00;0.00;0.00
65360;PMS5003;51958;55.018;73.536;2022-07-24T03:48:56;0.00;0.00;0.00
65360;PMS5003;51958;55.018;73.536;2022-07-24T03:51:21;0.00;0.00;0.00
65360;PMS5003;51958;55.018;73.536;2022-07-24T03:53:47;0.00;0.00;0.00
65360;PMS5003;51958;55.018;73.536;2022-07-24T03:56:13;0.00;0.00;0.00
65360;PMS5003;51958;55.018;73.536;2022-07-24T03:58:44;0.00;0.00;0.00
65360;PMS5003;51958;55.018;73.536;2022-07-24T04:01:10;0.00;0.00;0.00
65360;PMS5003;51958;55.018;73.536;2022-07-24T04:03:40;0.00;0.00;0.00
65360;PMS5003;51958;55.018;73.536;2022-07-24T04:06:06;0.00;0.00;0.00
65360;PMS5003;51958;55.018;73.536;2022-07-24T04:08:42;0.00;0.00;0.00
65360;PMS5003;51958;55.018;73.536;2022-07-24T04:11:08;0.00;0.00;0.00
65360;PMS5003;51958;55.018;73.536;2022-07-24T04:13:33;0.00;0.00;0.00
65360;PMS5003;51958;55.018;73.536;2022-07-24T04:16:05;0.00;0.00;0.00
65360;PMS5003;51958;55.018;73.536;2022-07-24T04:18:30;0.00;0.00;0.00
65360;PMS5003;51958;55.018;73.536;2022-07-24T04:21:03;0.00;0.00;0.00
65360;PMS5003;51958;55.018;73.536;2022-07-24T04:23:34;0.00;0.00;0.00
65360;PMS5003;51958;55.018;73.536;2022-07-24T04:26:00;0.00;0.00;0.00
65360;PMS5003;51958;55.018;73.536;2022-07-24T04:28:25;0.00;0.00;0.00
65360;PMS5003;51958;55.018;73.536;2022-07-24T04:30:51;0.00;0.00;0.00
65360;PMS5003;51958;55.018;73.536;2022-07-24T04:33:17;0.00;0.00;0.00
65360;PMS5003;51958;55.018;73.536;2022-07-24T04:35:43;0.00;0.00;0.00
65360;PMS5003;51958;55.018;73.536;2022-07-24T04:38:08;0.00;0.00;0.00
65360;PMS5003;51958;55.018;73.536;2022-07-24T04:40:35;0.00;0.00;0.00
65360;PMS5003;51958;55.018;73.536;2022-07-24T04:43:01;0.00;0.00;0.00
65360;PMS5003;51958;55.018;73.536;2022-07-24T04:45:26;0.00;0.00;0.00
65360;PMS5003;51958;55.018;73.536;2022-07-24T04:47:52;0.00;0.00;0.00
65360;PMS5003;51958;55.018;73.536;2022-07-24T04:50:18;0.00;0.00;0.00
65360;PMS5003;51958;55.018;73.536;2022-07-24T04:52:43;0.00;0.00;0.00
65360;PMS5003;51958;55.018;73.536;2022-07-24T04:55:10;0.00;0.00;0.00
65360;PMS5003;51958;55.018;73.536;2022-07-24T04:57:41;0.00;0.00;0.00
65360;PMS5003;51958;55.018;73.536;2022-07-24T05:00:07;0.00;0.00;0.00
65360;PMS5003;51958;55.018;73.536;2022-07-24T05:02:35;0.00;0.00;0.00
65360;PMS5003;51958;55.018;73.536;2022-07-24T05:05:00;0.00;0.00;0.00
65360;PMS5003;51958;55.018;73.536;2022-07-24T05:07:26;0.67;0.00;0.00
65360;PMS5003;51958;55.018;73.536;2022-07-24T05:09:57;0.00;0.00;0.00
65360;PMS5003;51958;55.018;73.536;2022-07-24T05:12:23;0.00;0.00;0.00
65360;PMS5003;51958;55.018;73.536;2022-07-24T05:15:00;0.00;0.00;0.00
65360;PMS5003;51958;55.018;73.536;2022-07-24T05:17:26;0.00;0.00;0.00
65360;PMS5003;51958;55.018;73.536;2022-07-24T05:19:52;0.00;0.00;0.00
65360;PMS5003;51958;55.018;73.536;2022-07-24T05:22:17;0.00;0.00;0.00
65360;PMS5003;51958;55.018;73.536;2022-07-24T05:24:44;0.00;0.00;0.00
65360;PMS5003;51958;55.018;73.536;2022-07-24T05:27:20;0.00;0.00;0.00
65360;PMS5003;51958;55.018;73.536;2022-07-24T05:29:50;0.00;0.00;0.00
65360;PMS5003;51958;55.018;73.536;2022-07-24T05:32:23;0.00;0.00;0.00
65360;PMS5003;51958;55.018;73.536;2022-07-24T05:34:49;0.00;0.00;0.00
65360;PMS5003;51958;55.018;73.536;2022-07-24T05:37:19;0.00;0.00;0.00
65360;PMS5003;51958;55.018;73.536;2022-07-24T05:39:45;0.00;0.00;0.00
65360;PMS5003;51958;55.018;73.536;2022-07-24T05:42:10;0.00;0.00;0.00
65360;PMS5003;51958;55.018;73.536;2022-07-24T05:44:36;0.00;0.00;0.00
65360;PMS5003;51958;55.018;73.536;2022-07-24T05:47:04;0.00;0.00;0.00
65360;PMS5003;51958;55.018;73.536;2022-07-24T05:49:30;0.00;0.00;0.00
65360;PMS5003;51958;55.018;73.536;2022-07-24T05:51:56;0.00;0.00;0.00
65360;PMS5003;51958;55.018;73.536;2022-07-24T05:54:26;0.00;0.00;0.00
65360;PMS5003;51958;55.018;73.536;2022-07-24T05:56:52;0.00;0.00;0.00
65360;PMS5003;51958;55.018;73.536;2022-07-24T05:59:17;0.00;0.00;0.00
65360;PMS5003;51958;55.018;73.536;2022-07-24T06:01:43;0.00;0.00;0.00
65360;PMS5003;51958;55.018;73.536;2022-07-24T06:04:09;0.00;0.00;0.00
65360;PMS5003;51958;55.018;73.536;2022-07-24T06:06:39;0.00;0.00;0.00
65360;PMS5003;51958;55.018;73.536;2022-07-24T06:09:08;0.00;0.00;0.00
65360;PMS5003;51958;55.018;73.536;2022-07-24T06:11:34;0.00;0.00;0.00
65360;PMS5003;51958;55.018;73.536;2022-07-24T06:14:05;0.00;0.00;0.00
65360;PMS5003;51958;55.018;73.536;2022-07-24T06:16:31;0.00;0.00;0.00
65360;PMS5003;51958;55.018;73.536;2022-07-24T06:19:01;0.00;0.00;0.00
65360;PMS5003;51958;55.018;73.536;2022-07-24T06:21:27;1.50;0.00;0.00
65360;PMS5003;51958;55.018;73.536;2022-07-24T06:23:55;1.00;0.00;0.00
65360;PMS5003;51958;55.018;73.536;2022-07-24T06:26:21;0.00;0.00;0.00
65360;PMS5003;51958;55.018;73.536;2022-07-24T06:28:50;0.00;0.00;0.00
65360;PMS5003;51958;55.018;73.536;2022-07-24T06:31:16;0.00;0.00;0.00
65360;PMS5003;51958;55.018;73.536;2022-07-24T06:33:42;0.00;0.00;0.00
65360;PMS5003;51958;55.018;73.536;2022-07-24T06:36:08;0.00;0.00;0.00
65360;PMS5003;51958;55.018;73.536;2022-07-24T06:38:39;0.00;0.00;0.00
65360;PMS5003;51958;55.018;73.536;2022-07-24T06:41:05;0.00;0.00;0.00
65360;PMS5003;51958;55.018;73.536;2022-07-24T06:43:30;0.00;0.00;0.00
65360;PMS5003;51958;55.018;73.536;2022-07-24T06:46:07;1.00;0.00;0.00
65360;PMS5003;51958;55.018;73.536;2022-07-24T06:48:37;0.00;0.00;0.00
65360;PMS5003;51958;55.018;73.536;2022-07-24T06:51:04;0.00;0.00;0.00
65360;PMS5003;51958;55.018;73.536;2022-07-24T06:53:30;0.00;0.00;0.00
65360;PMS5003;51958;55.018;73.536;2022-07-24T06:55:55;0.00;0.00;0.00
65360;PMS5003;51958;55.018;73.536;2022-07-24T06:58:27;0.00;0.00;0.00
65360;PMS5003;51958;55.018;73.536;2022-07-24T07:00:53;0.00;0.00;0.00
65360;PMS5003;51958;55.018;73.536;2022-07-24T07:03:19;0.00;0.00;0.00
65360;PMS5003;51958;55.018;73.536;2022-07-24T07:05:45;0.00;0.00;0.00
65360;PMS5003;51958;55.018;73.536;2022-07-24T07:08:10;0.00;0.00;0.00
65360;PMS5003;51958;55.018;73.536;2022-07-24T07:10:36;0.00;0.00;0.00
65360;PMS5003;51958;55.018;73.536;2022-07-24T07:13:02;0.00;0.00;0.00
65360;PMS5003;51958;55.018;73.536;2022-07-24T07:15:33;0.00;0.00;0.00
65360;PMS5003;51958;55.018;73.536;2022-07-24T07:17:59;0.00;0.00;0.00
65360;PMS5003;51958;55.018;73.536;2022-07-24T07:20:34;0.00;0.00;0.00
65360;PMS5003;51958;55.018;73.536;2022-07-24T07:23:00;1.00;0.00;0.00
65360;PMS5003;51958;55.018;73.536;2022-07-24T07:25:26;1.00;0.00;0.00
65360;PMS5003;51958;55.018;73.536;2022-07-24T07:27:52;0.00;0.00;0.00
65360;PMS5003;51958;55.018;73.536;2022-07-24T07:30:17;1.00;1.00;0.00
65360;PMS5003;51958;55.018;73.536;2022-07-24T07:32:43;1.00;1.00;0.00
65360;PMS5003;51958;55.018;73.536;2022-07-24T07:35:09;1.00;0.00;0.00
65360;PMS5003;51958;55.018;73.536;2022-07-24T07:37:35;0.00;0.00;0.00
65360;PMS5003;51958;55.018;73.536;2022-07-24T07:40:00;0.00;0.00;0.00
65360;PMS5003;51958;55.018;73.536;2022-07-24T07:42:26;1.00;1.00;0.00
65360;PMS5003;51958;55.018;73.536;2022-07-24T07:44:52;1.00;1.00;0.00
65360;PMS5003;51958;55.018;73.536;2022-07-24T07:47:20;0.00;0.00;0.00
65360;PMS5003;51958;55.018;73.536;2022-07-24T07:49:55;1.25;1.00;0.00
65360;PMS5003;51958;55.018;73.536;2022-07-24T07:52:27;0.00;0.00;0.00
65360;PMS5003;51958;55.018;73.536;2022-07-24T07:54:52;1.00;0.00;0.00
65360;PMS5003;51958;55.018;73.536;2022-07-24T07:57:18;1.00;0.00;0.00
65360;PMS5003;51958;55.018;73.536;2022-07-24T07:59:44;2.00;0.00;0.00
65360;PMS5003;51958;55.018;73.536;2022-07-24T08:02:10;0.00;0.00;0.00
65360;PMS5003;51958;55.018;73.536;2022-07-24T08:04:35;0.00;0.00;0.00
65360;PMS5003;51958;55.018;73.536;2022-07-24T08:07:01;0.00;0.00;0.00
65360;PMS5003;51958;55.018;73.536;2022-07-24T08:09:37;0.00;0.00;0.00
65360;PMS5003;51958;55.018;73.536;2022-07-24T08:12:04;0.00;0.00;0.00
65360;PMS5003;51958;55.018;73.536;2022-07-24T08:14:32;1.00;1.00;0.00
65360;PMS5003;51958;55.018;73.536;2022-07-24T08:16:57;0.00;0.00;0.00
65360;PMS5003;51958;55.018;73.536;2022-07-24T08:19:23;2.00;1.00;0.00
65360;PMS5003;51958;55.018;73.536;2022-07-24T08:21:49;1.00;1.00;0.00
65360;PMS5003;51958;55.018;73.536;2022-07-24T08:24:19;1.00;1.00;0.00
65360;PMS5003;51958;55.018;73.536;2022-07-24T08:26:53;3.00;3.00;0.00
65360;PMS5003;51958;55.018;73.536;2022-07-24T08:29:19;3.00;2.33;0.00
65360;PMS5003;51958;55.018;73.536;2022-07-24T08:31:45;2.00;0.00;0.00
65360;PMS5003;51958;55.018;73.536;2022-07-24T08:34:13;1.00;1.00;0.00
65360;PMS5003;51958;55.018;73.536;2022-07-24T08:36:39;0.00;0.00;0.00
65360;PMS5003;51958;55.018;73.536;2022-07-24T08:39:04;0.00;0.00;0.00
65360;PMS5003;51958;55.018;73.536;2022-07-24T08:41:40;0.00;0.00;0.00
65360;PMS5003;51958;55.018;73.536;2022-07-24T08:44:06;0.00;0.00;0.00
65360;PMS5003;51958;55.018;73.536;2022-07-24T08:46:32;0.00;0.00;0.00
65360;PMS5003;51958;55.018;73.536;2022-07-24T08:49:02;0.00;0.00;0.00
65360;PMS5003;51958;55.018;73.536;2022-07-24T08:51:29;0.75;0.00;0.00
65360;PMS5003;51958;55.018;73.536;2022-07-24T08:53:57;1.00;0.00;0.00
65360;PMS5003;51958;55.018;73.536;2022-07-24T08:56:25;1.00;0.00;0.00
65360;PMS5003;51958;55.018;73.536;2022-07-24T08:58:51;1.00;0.00;0.00
65360;PMS5003;51958;55.018;73.536;2022-07-24T09:01:17;1.25;0.25;0.00
65360;PMS5003;51958;55.018;73.536;2022-07-24T09:03:43;1.67;1.00;0.00
65360;PMS5003;51958;55.018;73.536;2022-07-24T09:06:15;3.75;3.00;0.00
65360;PMS5003;51958;55.018;73.536;2022-07-24T09:08:58;3.00;3.00;0.00
65360;PMS5003;51958;55.018;73.536;2022-07-24T09:11:26;14.00;12.25;8.00
65360;PMS5003;51958;55.018;73.536;2022-07-24T09:14:04;6.00;4.25;2.25
65360;PMS5003;51958;55.018;73.536;2022-07-24T09:16:49;3.00;2.50;1.00
65360;PMS5003;51958;55.018;73.536;2022-07-24T09:19:22;2.00;2.00;1.00
65360;PMS5003;51958;55.018;73.536;2022-07-24T09:21:48;3.00;3.00;0.00
65360;PMS5003;51958;55.018;73.536;2022-07-24T09:24:16;3.00;3.00;0.00
65360;PMS5003;51958;55.018;73.536;2022-07-24T09:26:53;4.00;3.00;0.00
65360;PMS5003;51958;55.018;73.536;2022-07-24T09:29:30;4.50;4.00;0.75
65360;PMS5003;51958;55.018;73.536;2022-07-24T09:32:02;4.00;4.00;1.00
65360;PMS5003;51958;55.018;73.536;2022-07-24T09:34:29;5.00;5.00;2.00
65360;PMS5003;51958;55.018;73.536;2022-07-24T09:36:59;6.00;6.00;2.00
65360;PMS5003;51958;55.018;73.536;2022-07-24T09:39:32;5.50;5.50;3.00
65360;PMS5003;51958;55.018;73.536;2022-07-24T09:42:04;4.00;4.00;2.00
65360;PMS5003;51958;55.018;73.536;2022-07-24T09:44:30;3.25;3.25;1.00
65360;PMS5003;51958;55.018;73.536;2022-07-24T09:47:08;6.00;5.75;1.50
65360;PMS5003;51958;55.018;73.536;2022-07-24T09:49:35;4.75;4.75;2.00
65360;PMS5003;51958;55.018;73.536;2022-07-24T09:54:32;5.00;5.00;1.00
65360;PMS5003;51958;55.018;73.536;2022-07-24T09:59:57;4.00;4.00;2.00
65360;PMS5003;51958;55.018;73.536;2022-07-24T10:02:28;3.75;3.75;1.75
65360;PMS5003;51958;55.018;73.536;2022-07-24T10:04:57;4.00;4.00;1.00
65360;PMS5003;51958;55.018;73.536;2022-07-24T10:07:26;2.00;2.00;0.00
65360;PMS5003;51958;55.018;73.536;2022-07-24T10:09:54;11.00;11.00;8.00
65360;PMS5003;51958;55.018;73.536;2022-07-24T10:12:31;8.25;8.25;3.00
65360;PMS5003;51958;55.018;73.536;2022-07-24T10:14:58;10.50;10.50;7.25
65360;PMS5003;51958;55.018;73.536;2022-07-24T10:20:08;10.00;7.00;5.00
65360;PMS5003;51958;55.018;73.536;2022-07-24T10:22:59;7.00;7.00;3.50
65360;PMS5003;51958;55.018;73.536;2022-07-24T10:25:46;9.75;8.50;4.25
65360;PMS5003;51958;55.018;73.536;2022-07-24T10:28:19;11.00;9.00;5.25
65360;PMS5003;51958;55.018;73.536;2022-07-24T10:30:49;4.25;3.00;2.00
65360;PMS5003;51958;55.018;73.536;2022-07-24T10:33:15;4.25;3.00;1.00
65360;PMS5003;51958;55.018;73.536;2022-07-24T10:35:53;4.00;3.00;1.00
65360;PMS5003;51958;55.018;73.536;2022-07-24T10:38:23;5.00;4.00;1.00
65360;PMS5003;51958;55.018;73.536;2022-07-24T10:40:54;5.00;4.00;1.25
65360;PMS5003;51958;55.018;73.536;2022-07-24T10:43:25;5.00;5.00;2.00
65360;PMS5003;51958;55.018;73.536;2022-07-24T10:56:17;7.00;6.00;3.00
65360;PMS5003;51958;55.018;73.536;2022-07-24T10:59:00;6.75;6.75;3.00
65360;PMS5003;51958;55.018;73.536;2022-07-24T11:01:33;4.50;4.00;2.00
65360;PMS5003;51958;55.018;73.536;2022-07-24T11:04:23;7.50;7.50;2.00
65360;PMS5003;51958;55.018;73.536;2022-07-24T11:06:53;7.00;7.00;2.25
65360;PMS5003;51958;55.018;73.536;2022-07-24T11:09:20;7.00;6.00;3.00
65360;PMS5003;51958;55.018;73.536;2022-07-24T11:14:26;13.00;10.00;6.00
65360;PMS5003;51958;55.018;73.536;2022-07-24T11:20:01;12.00;8.00;4.50
65360;PMS5003;51958;55.018;73.536;2022-07-24T11:22:54;8.00;7.00;3.00
65360;PMS5003;51958;55.018;73.536;2022-07-24T11:25:27;7.00;6.25;2.25
65360;PMS5003;51958;55.018;73.536;2022-07-24T11:30:51;8.75;5.00;2.00
65360;PMS5003;51958;55.018;73.536;2022-07-24T11:33:19;9.00;8.75;3.00
65360;PMS5003;51958;55.018;73.536;2022-07-24T11:35:47;7.00;7.00;3.00
65360;PMS5003;51958;55.018;73.536;2022-07-24T11:38:13;8.75;8.75;5.00
65360;PMS5003;51958;55.018;73.536;2022-07-24T11:40:44;13.75;12.00;6.50
65360;PMS5003;51958;55.018;73.536;2022-07-24T11:43:10;23.00;22.00;16.00
65360;PMS5003;51958;55.018;73.536;2022-07-24T11:45:36;16.00;14.50;7.50
65360;PMS5003;51958;55.018;73.536;2022-07-24T11:48:01;10.25;9.00;4.00
65360;PMS5003;51958;55.018;73.536;2022-07-24T11:50:37;8.00;7.75;3.75
65360;PMS5003;51958;55.018;73.536;2022-07-24T11:53:06;10.00;9.00;3.00
65360;PMS5003;51958;55.018;73.536;2022-07-24T11:55:32;7.00;6.25;3.50
65360;PMS5003;51958;55.018;73.536;2022-07-24T11:57:58;10.00;8.00;4.00
65360;PMS5003;51958;55.018;73.536;2022-07-24T12:00:25;7.33;7.33;4.00
65360;PMS5003;51958;55.018;73.536;2022-07-24T12:02:56;8.00;7.00;4.00
65360;PMS5003;51958;55.018;73.536;2022-07-24T12:05:25;9.00;8.00;4.00
65360;PMS5003;51958;55.018;73.536;2022-07-24T12:07:59;6.00;6.00;3.25
65360;PMS5003;51958;55.018;73.536;2022-07-24T12:10:25;8.25;8.00;4.00
65360;PMS5003;51958;55.018;73.536;2022-07-24T12:12:51;7.00;7.00;3.00
65360;PMS5003;51958;55.018;73.536;2022-07-24T12:15:19;6.00;6.00;4.00
65360;PMS5003;51958;55.018;73.536;2022-07-24T12:17:52;7.50;5.00;4.00
65360;PMS5003;51958;55.018;73.536;2022-07-24T12:22:52;7.75;6.75;4.00
65360;PMS5003;51958;55.018;73.536;2022-07-24T12:25:19;8.00;8.00;3.00
65360;PMS5003;51958;55.018;73.536;2022-07-24T12:27:46;7.25;7.00;3.00
65360;PMS5003;51958;55.018;73.536;2022-07-24T12:30:20;6.00;6.00;3.00
65360;PMS5003;51958;55.018;73.536;2022-07-24T12:33:09;8.00;7.00;3.00
65360;PMS5003;51958;55.018;73.536;2022-07-24T12:36:17;8.00;6.75;3.00
65360;PMS5003;51958;55.018;73.536;2022-07-24T12:39:10;8.00;7.00;3.75
65360;PMS5003;51958;55.018;73.536;2022-07-24T12:41:46;7.50;7.00;3.00
65360;PMS5003;51958;55.018;73.536;2022-07-24T12:44:15;6.00;6.00;1.50
65360;PMS5003;51958;55.018;73.536;2022-07-24T12:46:41;8.00;8.00;4.00
65360;PMS5003;51958;55.018;73.536;2022-07-24T12:49:14;7.75;6.50;4.00
65360;PMS5003;51958;55.018;73.536;2022-07-24T12:54:20;8.00;7.00;3.00
65360;PMS5003;51958;55.018;73.536;2022-07-24T12:56:47;7.25;7.00;4.00
65360;PMS5003;51958;55.018;73.536;2022-07-24T12:59:21;6.25;6.25;4.00
65360;PMS5003;51958;55.018;73.536;2022-07-24T13:01:52;7.00;6.00;3.75
65360;PMS5003;51958;55.018;73.536;2022-07-24T13:04:20;6.00;6.00;2.25
65360;PMS5003;51958;55.018;73.536;2022-07-24T13:06:47;7.00;7.00;4.00
65360;PMS5003;51958;55.018;73.536;2022-07-24T13:09:24;6.25;6.25;4.25
65360;PMS5003;51958;55.018;73.536;2022-07-24T13:11:54;6.25;6.25;3.75
65360;PMS5003;51958;55.018;73.536;2022-07-24T13:14:22;6.00;6.00;3.00
65360;PMS5003;51958;55.018;73.536;2022-07-24T13:16:49;8.00;8.00;2.25
65360;PMS5003;51958;55.018;73.536;2022-07-24T13:19:15;8.00;8.00;3.00
65360;PMS5003;51958;55.018;73.536;2022-07-24T13:21:43;8.00;7.50;4.00
65360;PMS5003;51958;55.018;73.536;2022-07-24T13:24:09;8.50;7.25;3.00
65360;PMS5003;51958;55.018;73.536;2022-07-24T13:26:36;10.00;9.00;4.00
65360;PMS5003;51958;55.018;73.536;2022-07-24T13:29:03;12.00;11.00;4.00
65360;PMS5003;51958;55.018;73.536;2022-07-24T13:31:30;10.50;8.50;5.00
65360;PMS5003;51958;55.018;73.536;2022-07-24T13:33:56;7.00;7.00;4.00
65360;PMS5003;51958;55.018;73.536;2022-07-24T13:36:33;8.75;7.75;4.00
65360;PMS5003;51958;55.018;73.536;2022-07-24T13:39:09;11.00;10.25;5.00
65360;PMS5003;51958;55.018;73.536;2022-07-24T13:41:34;10.67;10.00;5.00
65360;PMS5003;51958;55.018;73.536;2022-07-24T13:44:01;9.00;8.75;5.50
65360;PMS5003;51958;55.018;73.536;2022-07-24T13:46:28;8.25;7.75;4.00
65360;PMS5003;51958;55.018;73.536;2022-07-24T13:49:01;11.00;9.25;4.25
65360;PMS5003;51958;55.018;73.536;2022-07-24T13:51:27;10.00;8.00;4.00
65360;PMS5003;51958;55.018;73.536;2022-07-24T13:53:58;7.00;7.00;3.00
65360;PMS5003;51958;55.018;73.536;2022-07-24T13:56:25;8.00;7.00;4.00
65360;PMS5003;51958;55.018;73.536;2022-07-24T13:58:52;7.67;7.00;4.00
65360;PMS5003;51958;55.018;73.536;2022-07-24T14:01:18;8.75;8.75;3.00
65360;PMS5003;51958;55.018;73.536;2022-07-24T14:03:45;7.00;7.00;3.00
65360;PMS5003;51958;55.018;73.536;2022-07-24T14:06:11;7.50;6.50;1.00
65360;PMS5003;51958;55.018;73.536;2022-07-24T14:08:47;8.00;8.00;2.25
65360;PMS5003;51958;55.018;73.536;2022-07-24T14:11:17;7.75;7.00;3.00
65360;PMS5003;51958;55.018;73.536;2022-07-24T14:13:47;6.75;6.75;3.00
65360;PMS5003;51958;55.018;73.536;2022-07-24T14:16:13;7.33;7.00;3.00
65360;PMS5003;51958;55.018;73.536;2022-07-24T14:18:41;7.75;7.75;3.25
65360;PMS5003;51958;55.018;73.536;2022-07-24T14:21:12;6.00;6.00;3.00
65360;PMS5003;51958;55.018;73.536;2022-07-24T14:23:37;6.00;6.00;3.00
65360;PMS5003;51958;55.018;73.536;2022-07-24T14:26:03;6.00;6.00;3.00
65360;PMS5003;51958;55.018;73.536;2022-07-24T14:28:44;6.50;6.50;4.00
65360;PMS5003;51958;55.018;73.536;2022-07-24T14:31:12;6.00;6.00;3.00
65360;PMS5003;51958;55.018;73.536;2022-07-24T14:33:38;6.00;6.00;2.00
65360;PMS5003;51958;55.018;73.536;2022-07-24T14:36:04;7.00;7.00;3.00
65360;PMS5003;51958;55.018;73.536;2022-07-24T14:38:30;6.00;6.00;2.00
65360;PMS5003;51958;55.018;73.536;2022-07-24T14:40:56;7.00;6.67;3.33
65360;PMS5003;51958;55.018;73.536;2022-07-24T14:43:21;8.00;8.00;4.00
65360;PMS5003;51958;55.018;73.536;2022-07-24T14:45:57;9.75;9.75;4.75
65360;PMS5003;51958;55.018;73.536;2022-07-24T14:48:23;8.00;8.00;5.00
65360;PMS5003;51958;55.018;73.536;2022-07-24T14:50:48;11.67;11.67;7.67
65360;PMS5003;51958;55.018;73.536;2022-07-24T14:53:16;17.00;17.00;10.25